Terminal Aerodrome Forecast
Issued by NWS Duluth, MN

Home | Current Version | Previous Version | Text Only | Print | Product List | Glossary On
Versions: 1 2 3 4 5 6 7 8 9 10 11 12 13 14 15 16 17 18 19 20 21 22 23 24 25 26 27 28 29 30 31
000
FTUS43 KDLH 221752
TAFDLH
TAF
KDLH 221752Z 2218/2318 16012KT P6SM SCT200
     FM230200 16010KT P6SM VCSH SCT030 BKN060
     FM230400 16010KT 3SM -SHSN BKN025
     FM231100 17015G20KT P6SM VCSH BKN020=

USA.gov is the U.S. government's official web portal to all federal, state and local government web resources and services.